createdAt,value
2022-12-01T00:01:35.240Z,71.34
2022-12-01T00:04:03.935Z,71.37
2022-12-01T00:06:31.946Z,71.58
2022-12-01T00:09:20.128Z,71.79
2022-12-01T00:11:48.894Z,71.69
2022-12-01T00:14:17.618Z,71.61
2022-12-01T00:16:45.940Z,71.58
2022-12-01T00:19:13.976Z,71.59
2022-12-01T00:21:42.085Z,71.37
2022-12-01T00:24:11.657Z,71.12
2022-12-01T00:26:39.702Z,71.20
2022-12-01T00:29:09.339Z,71.16
2022-12-01T00:31:37.608Z,71.09
2022-12-01T00:34:11.121Z,71.14
2022-12-01T00:36:39.676Z,71.23
2022-12-01T00:39:09.287Z,71.22
2022-12-01T00:41:37.617Z,71.42
2022-12-01T00:44:05.912Z,71.53
2022-12-01T00:46:33.992Z,71.79
2022-12-01T00:49:01.840Z,71.79
2022-12-01T00:51:30.235Z,71.54
2022-12-01T00:53:58.495Z,71.25
2022-12-01T00:56:26.615Z,71.08
2022-12-01T00:58:54.571Z,71.04
2022-12-01T01:01:22.899Z,71.07
2022-12-01T01:03:50.942Z,71.04
2022-12-01T01:06:19.254Z,70.89
2022-12-01T01:08:47.218Z,71.21
2022-12-01T01:11:15.053Z,71.76
2022-12-01T01:13:43.296Z,71.90
2022-12-01T01:16:16.627Z,71.86
2022-12-01T01:18:44.950Z,71.82
2022-12-01T01:21:16.076Z,71.81
2022-12-01T01:23:44.418Z,71.63
2022-12-01T01:26:20.228Z,71.66
2022-12-01T01:28:49.354Z,71.68
2022-12-01T01:31:20.778Z,71.57
2022-12-01T01:33:49.452Z,71.68
2022-12-01T01:36:19.187Z,72.04
2022-12-01T01:38:47.634Z,72.10
2022-12-01T01:41:16.546Z,72.10
2022-12-01T01:43:51.131Z,71.96
2022-12-01T01:46:20.616Z,71.67
2022-12-01T01:49:06.044Z,71.41
2022-12-01T01:51:37.153Z,71.32
2022-12-01T01:54:10.031Z,71.25
2022-12-01T01:56:38.390Z,71.11
2022-12-01T01:59:06.632Z,70.99
2022-12-01T02:01:34.590Z,71.19
2022-12-01T02:04:03.430Z,71.37
2022-12-01T02:06:31.441Z,71.39
2022-12-01T02:08:59.665Z,71.29
2022-12-01T02:11:48.835Z,71.33
2022-12-01T02:14:38.390Z,71.38
2022-12-01T02:17:30.750Z,71.45
2022-12-01T02:20:22.838Z,71.49
2022-12-01T02:23:37.119Z,71.30
2022-12-01T02:26:08.044Z,71.13
2022-12-01T02:29:04.063Z,71.01
2022-12-01T02:31:44.376Z,70.88
2022-12-01T02:34:27.648Z,70.75
2022-12-01T02:37:08.079Z,70.78
2022-12-01T02:39:43.027Z,70.80
2022-12-01T02:42:50.300Z,70.89
2022-12-01T02:45:49.196Z,71.02
2022-12-01T02:48:49.408Z,71.21
2022-12-01T02:51:22.867Z,71.14
2022-12-01T02:53:51.920Z,70.95
2022-12-01T02:56:22.667Z,70.78
2022-12-01T02:58:51.313Z,70.60
2022-12-01T03:01:46.124Z,70.44
2022-12-01T03:04:56.892Z,70.40
2022-12-01T03:07:52.506Z,70.61
2022-12-01T03:10:42.436Z,70.74
2022-12-01T03:13:31.779Z,70.67
2022-12-01T03:16:12.886Z,70.71
2022-12-01T03:18:46.362Z,70.74
2022-12-01T03:21:24.515Z,70.85
2022-12-01T03:23:58.495Z,70.86
2022-12-01T03:26:30.916Z,70.65
2022-12-01T03:29:05.722Z,70.45
2022-12-01T03:31:40.950Z,70.31
2022-12-01T03:34:29.444Z,70.14
2022-12-01T03:37:03.481Z,70.16
2022-12-01T03:39:35.850Z,70.15
2022-12-01T03:42:38.979Z,70.00
2022-12-01T03:45:11.436Z,70.01
2022-12-01T03:47:40.684Z,70.24
2022-12-01T03:50:13.995Z,70.48
2022-12-01T03:53:07.580Z,70.48
2022-12-01T03:55:42.048Z,70.65
2022-12-01T03:58:20.363Z,70.50
2022-12-01T04:00:57.547Z,70.32
2022-12-01T04:03:26.633Z,70.16
2022-12-01T04:05:54.617Z,70.07
2022-12-01T04:08:22.699Z,69.99
2022-12-01T04:10:50.861Z,70.14
2022-12-01T04:13:25.704Z,70.22
2022-12-01T04:15:54.728Z,70.50
2022-12-01T04:18:22.726Z,70.67
2022-12-01T04:20:50.891Z,70.73
2022-12-01T04:23:37.255Z,70.69
2022-12-01T04:26:05.613Z,70.64
2022-12-01T04:28:34.076Z,70.52
2022-12-01T04:31:02.370Z,70.34
2022-12-01T04:33:30.372Z,70.19
2022-12-01T04:36:00.110Z,70.06
2022-12-01T04:38:30.855Z,70.04
2022-12-01T04:40:59.039Z,69.90
2022-12-01T04:43:26.970Z,69.95
2022-12-01T04:45:55.166Z,69.81
2022-12-01T04:48:23.137Z,69.94
2022-12-01T04:50:51.025Z,70.01
2022-12-01T04:53:19.119Z,70.07
2022-12-01T04:55:47.069Z,70.32
2022-12-01T04:58:15.655Z,70.49
2022-12-01T05:00:44.064Z,70.56
2022-12-01T05:03:15.056Z,70.59
2022-12-01T05:05:43.209Z,70.57
2022-12-01T05:08:11.862Z,70.49
2022-12-01T05:10:39.770Z,70.45
2022-12-01T05:13:07.710Z,70.34
2022-12-01T05:15:36.938Z,70.33
2022-12-01T05:18:06.060Z,70.23
2022-12-01T05:20:53.015Z,70.42
2022-12-01T05:23:20.876Z,70.53
2022-12-01T05:25:48.811Z,70.77
2022-12-01T05:28:16.784Z,71.15
2022-12-01T05:30:45.106Z,71.29
2022-12-01T05:33:12.961Z,71.50
2022-12-01T05:35:41.049Z,71.28
2022-12-01T05:38:09.372Z,71.11
2022-12-01T05:40:37.909Z,71.03
2022-12-01T05:43:06.499Z,71.18
2022-12-01T05:45:34.984Z,71.43
2022-12-01T05:48:03.114Z,71.50
2022-12-01T05:50:31.430Z,71.53
2022-12-01T05:52:59.387Z,71.82
2022-12-01T05:55:27.221Z,72.04
2022-12-01T05:57:55.128Z,72.28
2022-12-01T06:00:23.157Z,72.54
2022-12-01T06:02:51.215Z,72.79
2022-12-01T06:05:19.704Z,72.63
2022-12-01T06:07:47.943Z,72.47
2022-12-01T06:10:16.804Z,72.19
2022-12-01T06:12:45.053Z,71.88
2022-12-01T06:15:14.080Z,71.70
2022-12-01T06:17:42.223Z,71.37
2022-12-01T06:20:11.527Z,71.12
2022-12-01T06:22:39.901Z,71.07
2022-12-01T06:25:08.720Z,71.24
2022-12-01T06:27:37.105Z,71.57
2022-12-01T06:30:05.822Z,71.78
2022-12-01T06:32:33.901Z,71.84
2022-12-01T06:35:02.385Z,71.77
2022-12-01T06:37:30.505Z,71.73
2022-12-01T06:39:58.389Z,71.64
2022-12-01T06:42:30.259Z,71.63
2022-12-01T06:44:58.081Z,71.51
2022-12-01T06:47:25.852Z,71.50
2022-12-01T06:49:53.998Z,71.43
2022-12-01T06:52:21.929Z,71.62
2022-12-01T06:54:49.835Z,72.00
2022-12-01T06:57:18.389Z,72.38
2022-12-01T06:59:47.340Z,72.65
2022-12-01T07:02:17.047Z,72.79
2022-12-01T07:04:45.572Z,72.74
2022-12-01T07:07:13.414Z,72.73
2022-12-01T07:09:41.404Z,72.62
2022-12-01T07:12:10.173Z,72.55
2022-12-01T07:14:38.401Z,72.60
2022-12-01T07:17:06.230Z,72.78
2022-12-01T07:19:34.429Z,73.05
2022-12-01T07:22:02.648Z,73.30
2022-12-01T07:24:30.890Z,73.57
2022-12-01T07:26:59.669Z,73.62
2022-12-01T07:29:27.480Z,73.49
2022-12-01T07:31:55.356Z,73.46
2022-12-01T07:34:23.295Z,73.41
2022-12-01T07:36:51.528Z,73.30
2022-12-01T07:39:19.500Z,73.09
2022-12-01T07:41:47.830Z,72.99
2022-12-01T07:44:15.922Z,73.07
2022-12-01T07:46:44.065Z,73.23
2022-12-01T07:49:14.998Z,73.45
2022-12-01T07:51:42.946Z,73.57
2022-12-01T07:54:14.271Z,73.66
2022-12-01T07:56:42.549Z,73.48
2022-12-01T07:59:10.527Z,73.38
2022-12-01T08:01:44.066Z,73.29
2022-12-01T08:04:13.128Z,73.24
2022-12-01T08:06:41.045Z,73.11
2022-12-01T08:09:09.408Z,72.88
2022-12-01T08:11:37.511Z,72.74
2022-12-01T08:14:05.381Z,72.86
2022-12-01T08:16:33.379Z,72.91
2022-12-01T08:19:01.499Z,72.92
2022-12-01T08:21:29.444Z,72.91
2022-12-01T08:23:58.471Z,72.72
2022-12-01T08:26:27.221Z,72.67
2022-12-01T08:28:55.325Z,72.44
2022-12-01T08:31:27.693Z,72.35
2022-12-01T08:33:56.386Z,72.36
2022-12-01T08:36:25.188Z,72.37
2022-12-01T08:38:55.509Z,72.12
2022-12-01T08:41:24.678Z,72.07
2022-12-01T08:43:58.425Z,72.33
2022-12-01T08:46:32.522Z,72.50
2022-12-01T08:49:01.250Z,72.43
2022-12-01T08:51:29.167Z,72.35
2022-12-01T08:53:58.865Z,72.08
2022-12-01T08:56:34.336Z,72.06
2022-12-01T08:59:02.590Z,71.89
2022-12-01T09:01:30.597Z,71.76
2022-12-01T09:04:08.938Z,71.77
2022-12-01T09:06:44.742Z,71.85
2022-12-01T09:09:18.815Z,71.73
2022-12-01T09:11:47.640Z,71.61
2022-12-01T09:14:18.069Z,71.84
2022-12-01T09:16:48.155Z,71.90
2022-12-01T09:19:24.155Z,72.19
2022-12-01T09:21:53.627Z,72.23
2022-12-01T09:24:21.873Z,71.84
2022-12-01T09:26:50.403Z,71.47
2022-12-01T09:29:18.572Z,71.32
2022-12-01T09:31:46.526Z,71.19
2022-12-01T09:34:17.434Z,71.13
2022-12-01T09:36:46.778Z,70.84
2022-12-01T09:39:19.954Z,70.72
2022-12-01T09:41:56.403Z,70.71
2022-12-01T09:44:48.880Z,69.96
2022-12-01T09:47:22.915Z,69.94
2022-12-01T09:50:02.684Z,69.82
2022-12-01T09:53:02.529Z,69.38
2022-12-01T09:55:32.160Z,68.78
2022-12-01T09:58:02.504Z,68.22
2022-12-01T10:00:34.298Z,68.22
2022-12-01T10:03:24.947Z,68.52
2022-12-01T10:06:28.828Z,67.82
2022-12-01T10:09:10.637Z,67.62
2022-12-01T10:11:41.611Z,67.72
2022-12-01T10:14:19.650Z,67.74
2022-12-01T10:16:51.383Z,67.84
2022-12-01T10:19:33.195Z,67.51
2022-12-01T10:22:17.542Z,68.02
2022-12-01T10:25:07.113Z,67.76
2022-12-01T10:27:38.489Z,67.80
2022-12-01T10:30:09.810Z,67.57
2022-12-01T10:32:54.586Z,67.44
2022-12-01T10:35:25.943Z,67.20
2022-12-01T10:38:00.095Z,67.37
2022-12-01T10:40:29.005Z,67.20
2022-12-01T10:42:57.094Z,67.13
2022-12-01T10:45:28.378Z,67.16
2022-12-01T10:48:16.605Z,67.33
2022-12-01T10:51:10.079Z,67.13
2022-12-01T10:53:38.571Z,66.72
2022-12-01T10:56:14.324Z,66.52
2022-12-01T10:58:50.021Z,65.99
2022-12-01T11:01:31.949Z,65.87
2022-12-01T11:04:03.264Z,65.75
2022-12-01T11:06:32.615Z,66.02
2022-12-01T11:09:19.223Z,65.86
2022-12-01T11:12:02.528Z,65.84
2022-12-01T11:14:44.810Z,65.59
2022-12-01T11:17:33.914Z,65.57
2022-12-01T11:20:27.907Z,65.55
2022-12-01T11:23:18.573Z,65.16
2022-12-01T11:26:00.942Z,65.10
2022-12-01T11:28:30.102Z,64.67
2022-12-01T11:31:04.106Z,64.87
2022-12-01T11:33:48.164Z,65.03
2022-12-01T11:36:25.286Z,65.13
2022-12-01T11:38:59.259Z,65.35
2022-12-01T11:41:40.924Z,65.26
2022-12-01T11:44:43.619Z,65.31
2022-12-01T11:47:23.184Z,65.18
2022-12-01T11:49:54.279Z,65.49
2022-12-01T11:52:30.696Z,65.60
2022-12-01T11:55:08.426Z,65.47
2022-12-01T11:57:42.584Z,65.24
2022-12-01T12:00:18.358Z,65.18
2022-12-01T12:03:10.981Z,65.28
2022-12-01T12:05:39.095Z,65.78
2022-12-01T12:08:34.374Z,65.96
2022-12-01T12:11:29.163Z,66.13
2022-12-01T12:13:56.901Z,66.14
2022-12-01T12:16:44.104Z,66.00
2022-12-01T12:19:22.430Z,65.65
2022-12-01T12:22:41.949Z,65.55
2022-12-01T12:25:34.650Z,65.60
2022-12-01T12:28:39.409Z,65.84
2022-12-01T12:31:25.582Z,65.66
2022-12-01T12:33:59.281Z,65.73
2022-12-01T12:36:59.183Z,65.83
2022-12-01T12:40:04.128Z,66.15
2022-12-01T12:43:14.217Z,66.27
2022-12-01T12:45:49.101Z,66.39
2022-12-01T12:48:19.745Z,66.66
2022-12-01T12:51:05.774Z,66.71
2022-12-01T12:53:44.848Z,66.33
2022-12-01T12:56:18.138Z,66.36
2022-12-01T12:59:04.382Z,66.41
2022-12-01T13:01:54.004Z,66.36
2022-12-01T13:04:30.078Z,66.43
2022-12-01T13:07:07.244Z,66.41
2022-12-01T13:09:51.549Z,66.45
2022-12-01T13:12:30.222Z,66.39
2022-12-01T13:15:19.565Z,66.62
2022-12-01T13:17:58.735Z,66.77
2022-12-01T13:20:29.831Z,66.83
2022-12-01T13:23:00.850Z,66.63
2022-12-01T13:25:39.728Z,66.22
2022-12-01T13:28:40.471Z,66.35
2022-12-01T13:31:13.883Z,66.50
2022-12-01T13:33:57.465Z,66.56
2022-12-01T13:39:18.259Z,66.39
2022-12-01T13:41:56.824Z,66.53
2022-12-01T13:44:33.717Z,66.61
2022-12-01T13:47:30.416Z,66.78
2022-12-01T13:50:36.095Z,66.87
2022-12-01T13:53:19.869Z,67.09
2022-12-01T13:55:57.078Z,67.09
2022-12-01T13:58:47.501Z,67.15
2022-12-01T14:01:22.068Z,66.98
2022-12-01T14:03:56.903Z,66.87
2022-12-01T14:06:35.865Z,66.85
2022-12-01T14:09:17.839Z,66.81
2022-12-01T14:12:01.392Z,66.94
2022-12-01T14:14:36.764Z,67.01
2022-12-01T14:17:06.014Z,67.09
2022-12-01T14:19:39.745Z,66.96
2022-12-01T14:22:30.866Z,67.12
2022-12-01T14:24:59.734Z,67.38
2022-12-01T14:27:42.525Z,67.61
2022-12-01T14:30:41.806Z,67.54
2022-12-01T14:33:46.388Z,67.46
2022-12-01T14:36:23.454Z,67.67
2022-12-01T14:39:01.476Z,67.72
2022-12-01T14:41:42.510Z,67.77
2022-12-01T14:44:19.709Z,67.83
2022-12-01T14:47:21.114Z,67.79
2022-12-01T14:50:06.231Z,68.02
2022-12-01T14:52:38.731Z,68.28
2022-12-01T14:55:15.865Z,68.47
2022-12-01T14:57:50.568Z,68.67
2022-12-01T15:00:22.843Z,68.80
2022-12-01T15:02:56.793Z,68.71
2022-12-01T15:05:31.173Z,68.72
2022-12-01T15:08:40.299Z,68.60
2022-12-01T15:11:09.437Z,68.59
2022-12-01T15:13:51.247Z,68.59
2022-12-01T15:16:22.114Z,68.60
2022-12-01T15:18:50.554Z,68.63
2022-12-01T15:21:23.568Z,68.76
2022-12-01T15:24:03.270Z,68.92
2022-12-01T15:26:34.328Z,69.09
2022-12-01T15:29:21.441Z,69.11
2022-12-01T15:31:53.483Z,69.02
2022-12-01T15:34:27.187Z,68.98
2022-12-01T15:36:56.040Z,69.03
2022-12-01T15:39:35.817Z,68.98
2022-12-01T15:42:04.258Z,69.05
2022-12-01T15:44:35.295Z,68.98
2022-12-01T15:47:36.124Z,69.08
2022-12-01T15:50:05.200Z,69.13
2022-12-01T15:52:43.094Z,69.23
2022-12-01T15:55:25.514Z,69.24
2022-12-01T15:57:54.807Z,69.30
2022-12-01T16:00:23.564Z,69.22
2022-12-01T16:02:57.785Z,69.42
2022-12-01T16:05:29.010Z,69.55
2022-12-01T16:08:13.966Z,69.68
2022-12-01T16:10:42.620Z,69.56
2022-12-01T16:13:41.521Z,69.53
2022-12-01T16:16:28.442Z,69.30
2022-12-01T16:19:05.630Z,69.33
2022-12-01T16:21:46.804Z,69.48
2022-12-01T16:24:37.803Z,69.51
2022-12-01T16:27:16.654Z,69.67
2022-12-01T16:29:50.169Z,69.68
2022-12-01T16:32:44.396Z,69.59
2022-12-01T16:35:38.851Z,69.56
2022-12-01T16:38:17.286Z,69.55
2022-12-01T16:40:52.317Z,69.54
2022-12-01T16:43:25.412Z,69.49
2022-12-01T16:46:03.397Z,69.60
2022-12-01T16:48:31.757Z,69.67
2022-12-01T16:51:03.615Z,69.71
2022-12-01T16:53:31.925Z,69.69
2022-12-01T16:56:02.184Z,69.68
2022-12-01T16:58:30.805Z,69.61
2022-12-01T17:00:58.989Z,69.41
2022-12-01T17:03:28.420Z,69.34
2022-12-01T17:06:00.721Z,69.49
2022-12-01T17:08:28.757Z,69.53
2022-12-01T17:10:56.956Z,69.61
2022-12-01T17:13:25.288Z,69.59
2022-12-01T17:15:55.291Z,69.74
2022-12-01T17:18:24.037Z,69.97
2022-12-01T17:21:02.902Z,70.19
2022-12-01T17:23:32.819Z,69.99
2022-12-01T17:26:01.609Z,69.94
2022-12-01T17:28:29.709Z,69.85
2022-12-01T17:31:00.617Z,69.74
2022-12-01T17:33:29.066Z,69.71
2022-12-01T17:36:02.810Z,69.93
2022-12-01T17:38:30.971Z,70.11
2022-12-01T17:41:00.720Z,70.17
2022-12-01T17:43:29.134Z,70.05
2022-12-01T17:45:57.266Z,70.04
2022-12-01T17:48:26.057Z,70.02
2022-12-01T17:50:54.059Z,70.00
2022-12-01T17:53:21.967Z,69.99
2022-12-01T17:55:51.195Z,69.98
2022-12-01T17:58:21.546Z,69.83
2022-12-01T18:00:53.673Z,69.82
2022-12-01T18:03:21.754Z,69.84
2022-12-01T18:06:00.071Z,69.94
2022-12-01T18:08:30.439Z,70.07
2022-12-01T18:11:03.846Z,70.13
2022-12-01T18:13:31.752Z,70.21
2022-12-01T18:15:59.669Z,70.34
2022-12-01T18:18:27.759Z,70.19
2022-12-01T18:20:55.630Z,70.24
2022-12-01T18:23:23.533Z,70.12
2022-12-01T18:25:51.819Z,69.97
2022-12-01T18:28:20.322Z,69.90
2022-12-01T18:30:49.418Z,70.02
2022-12-01T18:33:18.221Z,70.15
2022-12-01T18:35:46.031Z,70.22
2022-12-01T18:38:14.190Z,70.27
2022-12-01T18:40:42.379Z,70.35
2022-12-01T18:43:10.192Z,70.49
2022-12-01T18:45:40.166Z,70.61
2022-12-01T18:48:08.544Z,70.77
2022-12-01T18:50:36.610Z,70.91
2022-12-01T18:53:05.100Z,71.03
2022-12-01T18:55:36.524Z,70.88
2022-12-01T18:58:04.592Z,70.73
2022-12-01T19:00:33.033Z,70.51
2022-12-01T19:03:01.782Z,70.45
2022-12-01T19:05:30.807Z,70.35
2022-12-01T19:07:59.147Z,70.31
2022-12-01T19:10:27.461Z,70.26
2022-12-01T19:12:55.449Z,70.30
2022-12-01T19:15:23.449Z,70.48
2022-12-01T19:17:51.295Z,70.80
2022-12-01T19:20:19.644Z,71.07
2022-12-01T19:22:48.558Z,71.34
2022-12-01T19:25:16.806Z,71.43
2022-12-01T19:27:45.169Z,71.48
2022-12-01T19:30:13.220Z,71.71
2022-12-01T19:32:43.499Z,71.71
2022-12-01T19:35:11.886Z,71.60
2022-12-01T19:37:39.790Z,71.47
2022-12-01T19:40:08.527Z,71.37
2022-12-01T19:42:36.729Z,71.46
2022-12-01T19:45:05.225Z,71.48
2022-12-01T19:47:34.684Z,71.55
2022-12-01T19:50:03.423Z,71.78
2022-12-01T19:52:31.196Z,71.93
2022-12-01T19:54:59.852Z,72.02
2022-12-01T19:57:27.815Z,71.94
2022-12-01T19:59:55.738Z,71.80
2022-12-01T20:02:28.943Z,71.66
2022-12-01T20:04:57.557Z,71.45
2022-12-01T20:07:25.751Z,71.21
2022-12-01T20:09:53.891Z,71.06
2022-12-01T20:12:22.015Z,70.94
2022-12-01T20:14:50.336Z,70.99
2022-12-01T20:17:18.879Z,71.21
2022-12-01T20:19:46.890Z,71.47
2022-12-01T20:22:14.800Z,71.46
2022-12-01T20:24:42.777Z,71.47
2022-12-01T20:27:10.729Z,71.48
2022-12-01T20:29:38.896Z,71.41
2022-12-01T20:32:07.169Z,71.34
2022-12-01T20:34:36.460Z,71.39
2022-12-01T20:37:04.670Z,71.35
2022-12-01T20:39:34.691Z,71.22
2022-12-01T20:42:02.759Z,71.18
2022-12-01T20:44:30.854Z,71.34
2022-12-01T20:46:58.895Z,71.30
2022-12-01T20:49:27.130Z,71.42
2022-12-01T20:51:55.389Z,71.57
2022-12-01T20:54:28.331Z,71.73
2022-12-01T20:56:58.292Z,71.87
2022-12-01T20:59:27.127Z,71.95
2022-12-01T21:01:55.487Z,72.09
2022-12-01T21:04:23.747Z,72.08
2022-12-01T21:06:55.717Z,72.15
2022-12-01T21:09:23.775Z,72.23
2022-12-01T21:12:10.244Z,72.23
2022-12-01T21:14:44.673Z,72.16
2022-12-01T21:17:32.406Z,72.14
2022-12-01T21:20:18.232Z,72.05
2022-12-01T21:22:46.727Z,71.89
2022-12-01T21:25:18.885Z,71.76
2022-12-01T21:27:48.147Z,71.84
2022-12-01T21:30:30.030Z,71.99
2022-12-01T21:33:26.332Z,72.01
2022-12-01T21:35:55.906Z,72.00
2022-12-01T21:38:25.175Z,72.16
2022-12-01T21:40:53.260Z,72.22
2022-12-01T21:43:23.895Z,72.27
2022-12-01T21:46:13.864Z,72.35
2022-12-01T21:48:42.762Z,72.36
2022-12-01T21:51:21.172Z,72.51
2022-12-01T21:53:50.269Z,72.41
2022-12-01T21:56:27.633Z,72.37
2022-12-01T21:58:59.261Z,72.44
2022-12-01T22:01:30.001Z,72.55
2022-12-01T22:04:09.113Z,72.59
2022-12-01T22:06:43.359Z,72.68
2022-12-01T22:09:17.655Z,72.75
2022-12-01T22:11:51.004Z,72.86
2022-12-01T22:14:26.401Z,72.85
2022-12-01T22:17:06.872Z,72.68
2022-12-01T22:19:40.163Z,72.70
2022-12-01T22:22:11.301Z,72.64
2022-12-01T22:24:40.941Z,72.78
2022-12-01T22:27:19.288Z,72.89
2022-12-01T22:29:49.143Z,72.94
2022-12-01T22:32:16.963Z,73.00
2022-12-01T22:34:55.295Z,73.20
2022-12-01T22:37:28.505Z,72.98
2022-12-01T22:39:57.346Z,72.64
2022-12-01T22:42:32.112Z,72.52
2022-12-01T22:45:14.946Z,72.35
2022-12-01T22:47:42.754Z,72.38
2022-12-01T22:50:31.423Z,72.14
2022-12-01T22:53:06.511Z,72.26
2022-12-01T22:55:34.810Z,72.36
2022-12-01T22:58:21.919Z,72.47
2022-12-01T23:00:50.281Z,72.64
2022-12-01T23:03:18.518Z,72.87
2022-12-01T23:05:53.148Z,72.80
2022-12-01T23:08:23.318Z,72.55
2022-12-01T23:10:51.989Z,72.53
2022-12-01T23:13:24.943Z,72.51
2022-12-01T23:15:54.180Z,72.46
2022-12-01T23:18:33.364Z,72.40
2022-12-01T23:21:02.170Z,72.53
2022-12-01T23:23:35.871Z,72.74
2022-12-01T23:26:06.363Z,72.89
2022-12-01T23:28:41.597Z,73.06
2022-12-01T23:31:10.302Z,72.98
2022-12-01T23:33:38.491Z,72.96
2022-12-01T23:36:17.012Z,73.02
2022-12-01T23:38:51.902Z,72.91
2022-12-01T23:41:26.462Z,72.82
2022-12-01T23:43:55.915Z,73.08
2022-12-01T23:46:27.756Z,73.27
2022-12-01T23:49:02.703Z,73.35
2022-12-01T23:51:47.842Z,73.47
2022-12-01T23:54:28.898Z,73.26
2022-12-01T23:57:01.506Z,73.11
2022-12-01T23:59:31.884Z,72.97
